Terminal Aerodrome Forecast
Issued by NWS Bismarck, ND

Home | Current Version | Previous Version | Graphics & Text | Print | Product List | Glossary Off
Versions: 1 2 3 4 5 6 7 8 9 10 11 12 13 14 15 16 17 18 19 20 21 22 23 24 25 26 27 28

000
FTUS43 KBIS 061631 AAB
TAFISN
TAF AMD
KISN 061631Z 0617/0712 30017G23KT P6SM BKN025 OVC050
      TEMPO 0617/0620 5SM BLSN BR OVC020
     FM062300 31015KT P6SM OVC025
     FM070300 31013KT P6SM OVC040
     FM070900 30013KT P6SM OVC015=

USA.gov is the U.S. government's official web portal to all federal, state and local government web resources and services.